createdAt,value
2019-05-02T00:00:02.516Z,46.30
2019-05-02T00:02:34.630Z,55.93
2019-05-02T00:05:07.414Z,51.13
2019-05-02T00:07:39.170Z,55.57
2019-05-02T00:10:14.430Z,58.13
2019-05-02T00:12:47.227Z,56.50
2019-05-02T00:15:20.338Z,55.87
2019-05-02T00:17:52.142Z,51.93
2019-05-02T00:20:25.895Z,55.87
2019-05-02T00:22:57.455Z,50.27
2019-05-02T00:25:29.946Z,56.17
2019-05-02T00:28:01.865Z,53.73
2019-05-02T00:30:34.639Z,53.43
2019-05-02T00:33:10.135Z,53.20
2019-05-02T00:35:40.992Z,54.20
2019-05-02T00:38:12.834Z,54.33
2019-05-02T00:40:46.352Z,54.33
2019-05-02T00:43:17.394Z,57.23
2019-05-02T00:45:50.212Z,54.90
2019-05-02T00:48:30.426Z,57.30
2019-05-02T00:51:01.774Z,60.90
2019-05-02T00:53:33.638Z,58.30
2019-05-02T00:56:05.071Z,62.00
2019-05-02T00:58:37.761Z,56.70
2019-05-02T01:01:35.474Z,61.18
2019-05-02T01:04:16.400Z,60.00
2019-05-02T01:06:50.703Z,61.95
2019-05-02T01:09:22.169Z,61.70
2019-05-02T01:11:54.109Z,63.33
2019-05-02T01:14:27.091Z,66.07
2019-05-02T01:16:59.491Z,66.10
2019-05-02T01:19:32.474Z,64.50
2019-05-02T01:22:03.888Z,64.87
2019-05-02T01:24:39.810Z,64.53
2019-05-02T01:27:17.411Z,65.03
2019-05-02T01:30:01.588Z,65.32
2019-05-02T01:32:47.141Z,61.55
2019-05-02T01:35:31.564Z,61.30
2019-05-02T01:38:31.132Z,61.37
2019-05-02T01:40:58.444Z,62.35
2019-05-02T01:43:32.295Z,59.30
2019-05-02T01:46:04.201Z,60.05
2019-05-02T01:48:40.192Z,60.17
2019-05-02T01:51:11.923Z,59.85
2019-05-02T01:53:43.000Z,60.03
2019-05-02T01:56:14.918Z,59.30
2019-05-02T01:58:46.251Z,66.17
2019-05-02T02:01:21.434Z,72.67
2019-05-02T02:03:50.595Z,59.48
2019-05-02T02:06:22.273Z,60.88
2019-05-02T02:08:53.793Z,60.48
2019-05-02T02:11:31.940Z,55.92
2019-05-02T02:13:59.017Z,53.35
2019-05-02T02:16:35.111Z,59.80
2019-05-02T02:19:21.415Z,58.08
2019-05-02T02:22:04.463Z,60.28
2019-05-02T02:24:42.324Z,54.77
2019-05-02T02:27:14.201Z,60.03
2019-05-02T02:29:45.791Z,59.00
2019-05-02T02:32:20.176Z,59.63
2019-05-02T02:34:50.697Z,59.90
2019-05-02T02:37:22.958Z,59.53
2019-05-02T02:39:56.482Z,61.73
2019-05-02T02:42:31.643Z,57.15
2019-05-02T02:45:12.985Z,56.55
2019-05-02T02:47:39.989Z,60.70
2019-05-02T02:50:11.424Z,63.28
2019-05-02T02:52:44.502Z,58.78
2019-05-02T02:55:16.150Z,57.90
2019-05-02T02:57:49.090Z,57.25
2019-05-02T03:00:20.819Z,61.02
2019-05-02T03:02:52.820Z,58.90
2019-05-02T03:05:25.892Z,66.72
2019-05-02T03:07:59.539Z,58.68
2019-05-02T03:10:31.285Z,58.58
2019-05-02T03:13:21.789Z,60.88
2019-05-02T03:16:00.419Z,64.92
2019-05-02T03:18:39.480Z,59.48
2019-05-02T03:21:02.936Z,64.72
2019-05-02T03:23:34.752Z,63.78
2019-05-02T03:26:07.854Z,62.88
2019-05-02T03:28:39.475Z,68.75
2019-05-02T03:31:23.484Z,65.03
2019-05-02T03:33:54.445Z,68.85
2019-05-02T03:36:29.188Z,67.50
2019-05-02T03:38:53.755Z,62.27
2019-05-02T03:41:26.265Z,61.90
2019-05-02T03:44:10.511Z,58.58
2019-05-02T03:46:31.882Z,62.58
2019-05-02T03:49:07.265Z,62.20
2019-05-02T03:51:36.504Z,63.87
2019-05-02T03:54:10.391Z,65.40
2019-05-02T03:56:44.603Z,67.75
2019-05-02T03:59:15.781Z,69.27
2019-05-02T04:01:48.964Z,71.55
2019-05-02T04:04:21.052Z,70.20
2019-05-02T04:06:54.990Z,68.47
2019-05-02T04:09:42.047Z,65.65
2019-05-02T04:12:18.932Z,65.05
2019-05-02T04:14:45.702Z,68.17
2019-05-02T04:17:17.320Z,65.15
2019-05-02T04:19:51.117Z,67.60
2019-05-02T04:22:24.663Z,65.85
2019-05-02T04:24:57.255Z,70.12
2019-05-02T04:27:34.184Z,65.08
2019-05-02T04:30:11.434Z,64.15
2019-05-02T04:32:36.671Z,56.00
2019-05-02T04:35:08.029Z,57.17
2019-05-02T04:37:41.131Z,58.07
2019-05-02T04:40:13.301Z,55.90
2019-05-02T04:42:51.237Z,51.67
2019-05-02T04:45:26.431Z,53.80
2019-05-02T04:47:58.628Z,54.13
2019-05-02T04:50:25.657Z,50.87
2019-05-02T04:52:59.263Z,50.33
2019-05-02T04:55:33.374Z,55.97
2019-05-02T04:58:04.019Z,50.47
2019-05-02T05:00:35.326Z,51.30
2019-05-02T05:03:15.279Z,53.37
2019-05-02T05:05:40.486Z,52.23
2019-05-02T05:08:17.542Z,51.80
2019-05-02T05:10:45.384Z,47.77
2019-05-02T05:13:22.738Z,45.83
2019-05-02T05:15:52.026Z,45.40
2019-05-02T05:18:23.934Z,45.63
2019-05-02T05:20:57.732Z,44.53
2019-05-02T05:23:38.111Z,43.33
2019-05-02T05:26:10.054Z,45.13
2019-05-02T05:28:44.338Z,48.13
2019-05-02T05:31:18.438Z,43.00
2019-05-02T05:33:47.962Z,46.88
2019-05-02T05:36:20.016Z,45.03
2019-05-02T05:38:52.875Z,42.30
2019-05-02T05:41:24.567Z,41.67
2019-05-02T05:43:57.349Z,40.27
2019-05-02T05:46:33.394Z,39.00
2019-05-02T05:49:01.859Z,39.03
2019-05-02T05:51:34.247Z,38.30
2019-05-02T05:54:07.601Z,38.77
2019-05-02T05:56:42.986Z,37.83
2019-05-02T05:59:13.305Z,35.47
2019-05-02T06:01:47.820Z,35.23
2019-05-02T06:04:23.380Z,36.67
2019-05-02T06:06:54.115Z,33.17
2019-05-02T06:09:26.369Z,34.70
2019-05-02T06:11:58.435Z,35.87
2019-05-02T06:14:30.665Z,33.03
2019-05-02T06:17:02.464Z,34.93
2019-05-02T06:19:33.823Z,30.83
2019-05-02T06:22:05.686Z,31.17
2019-05-02T06:24:37.996Z,29.90
2019-05-02T06:27:09.905Z,29.60
2019-05-02T06:29:41.563Z,26.40
2019-05-02T06:32:14.131Z,26.33
2019-05-02T06:34:47.534Z,24.70
2019-05-02T06:37:19.715Z,25.97
2019-05-02T06:39:51.347Z,23.70
2019-05-02T06:42:23.179Z,24.97
2019-05-02T06:44:59.707Z,26.00
2019-05-02T06:47:28.478Z,22.37
2019-05-02T06:50:01.243Z,23.37
2019-05-02T06:52:34.935Z,23.60
2019-05-02T06:55:06.797Z,23.27
2019-05-02T06:57:38.547Z,23.23
2019-05-02T07:00:11.302Z,22.23
2019-05-02T07:02:43.453Z,21.70
2019-05-02T07:05:14.958Z,23.63
2019-05-02T07:07:46.664Z,23.07
2019-05-02T07:10:20.049Z,23.57
2019-05-02T07:13:09.388Z,22.33
2019-05-02T07:15:44.298Z,26.00
2019-05-02T07:18:17.716Z,22.63
2019-05-02T07:20:49.658Z,21.60
2019-05-02T07:23:22.062Z,23.03
2019-05-02T07:25:53.431Z,22.23
2019-05-02T07:28:25.150Z,22.67
2019-05-02T07:30:57.654Z,21.27
2019-05-02T07:33:32.246Z,23.30
2019-05-02T07:36:02.876Z,21.37
2019-05-02T07:38:34.316Z,20.80
2019-05-02T07:41:06.231Z,21.37
2019-05-02T07:43:38.163Z,21.77
2019-05-02T07:46:10.543Z,20.83
2019-05-02T07:48:43.735Z,23.30
2019-05-02T07:51:17.219Z,21.53
2019-05-02T07:53:50.600Z,22.83
2019-05-02T07:56:22.531Z,21.30
2019-05-02T07:58:54.197Z,21.27
2019-05-02T08:01:26.572Z,22.40
2019-05-02T08:04:04.190Z,22.40
2019-05-02T08:06:35.335Z,22.53
2019-05-02T08:09:09.226Z,19.27
2019-05-02T08:11:41.967Z,19.27
2019-05-02T08:14:13.605Z,19.13
2019-05-02T08:16:45.503Z,19.50
2019-05-02T08:19:17.216Z,19.50
2019-05-02T08:21:49.334Z,21.13
2019-05-02T08:24:20.503Z,20.97
2019-05-02T08:27:09.439Z,20.73
2019-05-02T08:29:41.110Z,18.10
2019-05-02T08:32:13.643Z,19.33
2019-05-02T08:34:46.117Z,19.37
2019-05-02T08:37:18.467Z,18.83
2019-05-02T08:39:49.805Z,20.50
2019-05-02T08:42:22.156Z,22.77
2019-05-02T08:44:56.315Z,20.83
2019-05-02T08:47:28.460Z,22.23
2019-05-02T08:50:00.661Z,22.27
2019-05-02T08:52:32.332Z,21.60
2019-05-02T08:55:04.405Z,26.10
2019-05-02T08:57:36.461Z,22.10
2019-05-02T09:00:10.174Z,18.77
2019-05-02T09:02:42.208Z,19.53
2019-05-02T09:05:14.087Z,18.47
2019-05-02T09:07:45.645Z,20.50
2019-05-02T09:10:17.927Z,19.53
2019-05-02T09:12:51.941Z,22.77
2019-05-02T09:15:23.332Z,19.93
2019-05-02T09:17:56.570Z,26.67
2019-05-02T09:20:27.984Z,20.10
2019-05-02T09:22:59.404Z,18.67
2019-05-02T09:25:32.380Z,20.50
2019-05-02T09:28:04.492Z,19.40
2019-05-02T09:30:35.765Z,20.53
2019-05-02T09:33:07.487Z,23.37
2019-05-02T09:35:38.820Z,19.40
2019-05-02T09:38:12.501Z,19.67
2019-05-02T09:40:47.328Z,18.03
2019-05-02T09:43:16.877Z,21.40
2019-05-02T09:45:48.199Z,21.37
2019-05-02T09:48:22.875Z,19.97
2019-05-02T09:50:53.561Z,19.07
2019-05-02T09:53:25.779Z,18.57
2019-05-02T09:55:58.153Z,19.23
2019-05-02T09:58:31.848Z,20.97
2019-05-02T10:01:11.911Z,19.43
2019-05-02T10:03:44.357Z,21.00
2019-05-02T10:06:18.215Z,16.50
2019-05-02T10:08:49.311Z,20.37
2019-05-02T10:11:22.469Z,17.83
2019-05-02T10:13:55.492Z,18.10
2019-05-02T10:16:27.558Z,19.63
2019-05-02T10:19:00.221Z,23.30
2019-05-02T10:21:33.298Z,21.40
2019-05-02T10:24:05.077Z,20.00
2019-05-02T10:26:36.735Z,19.83
2019-05-02T10:29:08.089Z,19.13
2019-05-02T10:31:41.906Z,21.03
2019-05-02T10:34:17.627Z,17.83
2019-05-02T10:36:54.221Z,23.63
2019-05-02T10:39:28.391Z,18.30
2019-05-02T10:41:59.568Z,16.60
2019-05-02T10:44:36.482Z,17.63
2019-05-02T10:47:06.020Z,19.30
2019-05-02T10:49:59.081Z,17.70
2019-05-02T10:52:33.962Z,18.40
2019-05-02T10:55:04.695Z,17.90
2019-05-02T10:57:36.319Z,16.13
2019-05-02T11:00:12.102Z,18.90
2019-05-02T11:03:05.690Z,17.30
2019-05-02T11:05:38.336Z,14.90
2019-05-02T11:08:11.896Z,14.80
2019-05-02T11:10:43.519Z,15.63
2019-05-02T11:13:24.349Z,15.43
2019-05-02T11:16:14.330Z,16.40
2019-05-02T11:18:53.777Z,16.00
2019-05-02T11:21:25.628Z,14.63
2019-05-02T11:23:57.557Z,16.30
2019-05-02T11:26:29.057Z,15.23
2019-05-02T11:29:00.407Z,17.10
2019-05-02T11:31:32.445Z,14.60
2019-05-02T11:34:04.985Z,14.27
2019-05-02T11:36:37.462Z,15.07
2019-05-02T11:39:19.168Z,15.70
2019-05-02T11:41:42.944Z,15.37
2019-05-02T11:44:14.514Z,15.47
2019-05-02T11:46:47.094Z,15.40
2019-05-02T11:49:18.710Z,15.80
2019-05-02T11:51:52.739Z,16.00
2019-05-02T11:54:22.823Z,17.67
2019-05-02T11:56:54.229Z,16.13
2019-05-02T11:59:27.967Z,15.00
2019-05-02T12:02:17.500Z,13.77
2019-05-02T12:04:47.312Z,13.87
2019-05-02T12:07:19.772Z,13.53
2019-05-02T12:09:56.913Z,13.83
2019-05-02T12:12:27.175Z,13.60
2019-05-02T12:14:58.342Z,14.00
2019-05-02T12:17:29.974Z,11.80
2019-05-02T12:20:02.409Z,12.43
2019-05-02T12:22:37.176Z,11.77
2019-05-02T12:25:09.993Z,13.60
2019-05-02T12:27:42.456Z,12.17
2019-05-02T12:30:14.440Z,14.50
2019-05-02T12:32:45.751Z,14.07
2019-05-02T12:35:17.406Z,12.93
2019-05-02T12:37:52.395Z,13.83
2019-05-02T12:40:22.101Z,11.80
2019-05-02T12:42:53.707Z,10.80
2019-05-02T12:45:25.497Z,15.00
2019-05-02T12:47:57.748Z,14.00
2019-05-02T12:50:29.074Z,15.63
2019-05-02T12:53:02.816Z,18.40
2019-05-02T12:55:33.989Z,16.47
2019-05-02T12:58:06.000Z,22.10
2019-05-02T13:00:37.749Z,21.83
2019-05-02T13:03:18.501Z,23.83
2019-05-02T13:05:51.936Z,21.90
2019-05-02T13:08:25.379Z,21.17
2019-05-02T13:11:07.046Z,23.23
2019-05-02T13:13:38.467Z,24.73
2019-05-02T13:16:12.059Z,22.00
2019-05-02T13:18:42.976Z,21.90
2019-05-02T13:21:17.104Z,25.63
2019-05-02T13:24:12.213Z,23.93
2019-05-02T13:26:42.777Z,22.37
2019-05-02T13:29:14.654Z,14.33
2019-05-02T13:32:03.056Z,15.43
2019-05-02T13:34:57.085Z,13.50
2019-05-02T13:37:28.694Z,13.20
2019-05-02T13:40:05.606Z,13.87
2019-05-02T13:42:37.388Z,11.70
2019-05-02T13:45:21.630Z,13.40
2019-05-02T13:47:53.005Z,16.10
2019-05-02T13:50:24.849Z,17.80
2019-05-02T13:52:58.021Z,16.60
2019-05-02T13:55:33.870Z,17.27
2019-05-02T13:58:05.816Z,21.97
2019-05-02T14:00:45.396Z,21.20
2019-05-02T14:03:18.715Z,18.93
2019-05-02T14:05:53.197Z,18.67
2019-05-02T14:08:36.857Z,19.70
2019-05-02T14:11:24.076Z,19.90
2019-05-02T14:13:55.105Z,20.53
2019-05-02T14:16:26.984Z,19.67
2019-05-02T14:18:58.249Z,20.53
2019-05-02T14:21:29.725Z,16.97
2019-05-02T14:24:01.798Z,20.43
2019-05-02T14:26:33.900Z,19.03
2019-05-02T14:29:07.237Z,19.23
2019-05-02T14:31:38.942Z,19.70
2019-05-02T14:34:28.236Z,18.70
2019-05-02T14:37:01.943Z,20.93
2019-05-02T14:39:32.878Z,20.10
2019-05-02T14:42:05.194Z,22.23
2019-05-02T14:45:01.283Z,22.97
2019-05-02T14:47:15.661Z,24.53
2019-05-02T14:49:43.026Z,27.33
2019-05-02T14:52:14.601Z,25.47
2019-05-02T14:54:47.895Z,25.57
2019-05-02T14:57:25.465Z,23.17
2019-05-02T14:59:59.209Z,23.17
2019-05-02T15:02:44.951Z,24.13
2019-05-02T15:05:19.446Z,23.40
2019-05-02T15:07:49.345Z,22.23
2019-05-02T15:10:22.783Z,20.63
2019-05-02T15:12:59.499Z,19.80
2019-05-02T15:15:27.932Z,18.77
2019-05-02T15:18:00.052Z,16.10
2019-05-02T15:20:38.914Z,15.90
2019-05-02T15:23:07.186Z,13.77
2019-05-02T15:25:37.782Z,12.70
2019-05-02T15:28:13.084Z,13.47
2019-05-02T15:30:49.417Z,12.30
2019-05-02T15:33:22.298Z,11.23
2019-05-02T15:35:57.282Z,11.90
2019-05-02T15:38:32.164Z,11.40
2019-05-02T15:41:05.063Z,15.87
2019-05-02T15:43:39.326Z,11.37
2019-05-02T15:46:09.247Z,11.33
2019-05-02T15:48:42.247Z,12.30
2019-05-02T15:51:14.063Z,10.80
2019-05-02T15:54:05.324Z,12.40
2019-05-02T15:56:28.229Z,18.53
2019-05-02T15:59:04.766Z,13.50
2019-05-02T16:01:52.334Z,12.47
2019-05-02T16:04:25.869Z,15.57
2019-05-02T16:07:00.435Z,15.20
2019-05-02T16:09:32.888Z,14.07
2019-05-02T16:12:04.922Z,14.67
2019-05-02T16:14:37.397Z,13.17
2019-05-02T16:17:09.600Z,14.93
2019-05-02T16:19:45.760Z,15.83
2019-05-02T16:22:18.726Z,13.93
2019-05-02T16:24:51.460Z,16.50
2019-05-02T16:27:44.271Z,14.53
2019-05-02T16:30:22.346Z,17.53
2019-05-02T16:32:59.777Z,14.07
2019-05-02T16:35:33.141Z,15.37
2019-05-02T16:38:04.886Z,15.90
2019-05-02T16:40:36.243Z,17.60
2019-05-02T16:43:08.489Z,17.53
2019-05-02T16:45:41.666Z,16.83
2019-05-02T16:48:13.939Z,15.90
2019-05-02T16:50:45.194Z,21.13
2019-05-02T16:53:17.234Z,18.43
2019-05-02T16:55:50.011Z,18.70
2019-05-02T16:58:21.603Z,19.27
2019-05-02T17:00:53.097Z,19.20
2019-05-02T17:03:26.588Z,22.53
2019-05-02T17:05:58.320Z,22.77
2019-05-02T17:08:57.162Z,22.43
2019-05-02T17:11:35.855Z,21.93
2019-05-02T17:14:11.449Z,24.97
2019-05-02T17:16:42.041Z,25.20
2019-05-02T17:19:13.043Z,24.70
2019-05-02T17:21:55.399Z,28.23
2019-05-02T17:24:22.613Z,26.20
2019-05-02T17:26:52.188Z,27.00
2019-05-02T17:29:23.829Z,25.37
2019-05-02T17:31:59.131Z,27.03
2019-05-02T17:34:30.790Z,26.23
2019-05-02T17:37:04.894Z,26.80
2019-05-02T17:39:37.312Z,26.47
2019-05-02T17:42:07.729Z,29.73
2019-05-02T17:44:41.540Z,36.03
2019-05-02T17:47:14.303Z,33.50
2019-05-02T17:49:45.740Z,36.43
2019-05-02T17:52:26.823Z,44.30
2019-05-02T17:54:57.456Z,37.27
2019-05-02T17:57:33.436Z,41.37
2019-05-02T18:00:02.903Z,38.10
2019-05-02T18:02:36.597Z,40.77
2019-05-02T18:05:08.012Z,41.00
2019-05-02T18:07:41.785Z,43.27
2019-05-02T18:10:18.438Z,45.70
2019-05-02T18:12:55.862Z,43.23
2019-05-02T18:15:22.804Z,46.67
2019-05-02T18:17:54.287Z,41.67
2019-05-02T18:20:25.627Z,45.93
2019-05-02T18:22:57.067Z,45.50
2019-05-02T18:25:28.469Z,49.77
2019-05-02T18:28:02.407Z,41.90
2019-05-02T18:30:33.941Z,40.43
2019-05-02T18:33:07.382Z,43.00
2019-05-02T18:35:45.242Z,42.70
2019-05-02T18:38:15.921Z,39.87
2019-05-02T18:40:45.183Z,36.80
2019-05-02T18:43:16.644Z,36.47
2019-05-02T18:45:48.355Z,39.13
2019-05-02T18:48:21.821Z,34.50
2019-05-02T18:50:54.132Z,37.03
2019-05-02T18:53:27.254Z,35.30
2019-05-02T18:56:01.518Z,36.97
2019-05-02T18:58:32.099Z,40.83
2019-05-02T19:01:08.406Z,36.27
2019-05-02T19:03:38.612Z,37.50
2019-05-02T19:06:11.654Z,38.57
2019-05-02T19:08:49.850Z,37.33
2019-05-02T19:11:22.131Z,39.83
2019-05-02T19:13:53.885Z,37.47
2019-05-02T19:16:28.800Z,37.17
2019-05-02T19:18:58.762Z,37.10
2019-05-02T19:21:32.082Z,32.97
2019-05-02T19:24:04.017Z,33.40
2019-05-02T19:26:35.472Z,34.70
2019-05-02T19:29:16.974Z,32.73
2019-05-02T19:31:48.210Z,33.43
2019-05-02T19:34:22.911Z,30.17
2019-05-02T19:36:53.079Z,32.97
2019-05-02T19:39:25.805Z,33.57
2019-05-02T19:41:57.281Z,33.33
2019-05-02T19:44:29.824Z,29.67
2019-05-02T19:47:02.585Z,30.77
2019-05-02T19:49:33.861Z,25.23
2019-05-02T19:52:05.759Z,25.57
2019-05-02T19:54:39.319Z,22.70
2019-05-02T19:57:11.846Z,23.17
2019-05-02T19:59:43.372Z,19.17
2019-05-02T20:02:14.594Z,14.10
2019-05-02T20:04:46.798Z,12.43
2019-05-02T20:07:18.831Z,9.47
2019-05-02T20:09:52.340Z,9.30
2019-05-02T20:12:24.279Z,5.97
2019-05-02T20:14:55.865Z,5.73
2019-05-02T20:17:26.945Z,4.87
2019-05-02T20:20:05.482Z,6.78
2019-05-02T20:31:40.939Z,6.53
2019-05-02T20:34:12.117Z,7.70
2019-05-02T20:36:43.895Z,7.37
2019-05-02T20:39:15.716Z,6.83
2019-05-02T20:41:47.590Z,8.13
2019-05-02T20:44:18.942Z,6.30
2019-05-02T20:46:51.653Z,7.80
2019-05-02T20:49:23.573Z,6.47
2019-05-02T20:51:55.391Z,7.10
2019-05-02T20:54:27.399Z,6.87
2019-05-02T20:56:59.229Z,7.97
2019-05-02T20:59:32.286Z,8.17
2019-05-02T21:02:03.777Z,8.77
2019-05-02T21:04:37.299Z,9.87
2019-05-02T21:07:19.091Z,8.87
2019-05-02T21:09:57.319Z,9.10
2019-05-02T21:12:28.810Z,9.80
2019-05-02T21:15:01.707Z,11.27
2019-05-02T21:17:34.558Z,13.13
2019-05-02T21:20:07.144Z,13.33
2019-05-02T21:22:38.746Z,13.10
2019-05-02T21:25:12.843Z,12.30
2019-05-02T21:27:44.514Z,17.57
2019-05-02T21:30:21.833Z,13.13
2019-05-02T21:32:53.436Z,17.17
2019-05-02T21:35:25.094Z,16.73
2019-05-02T21:37:56.218Z,18.43
2019-05-02T21:40:27.572Z,14.27
2019-05-02T21:42:58.999Z,18.93
2019-05-02T21:45:31.632Z,12.70
2019-05-02T21:48:03.006Z,11.93
2019-05-02T21:50:42.826Z,11.20
2019-05-02T21:53:23.671Z,11.07
2019-05-02T21:56:21.782Z,16.30
2019-05-02T21:59:07.901Z,12.07
2019-05-02T22:01:47.726Z,15.17
2019-05-02T22:04:19.332Z,12.30
2019-05-02T22:06:52.217Z,14.27
2019-05-02T22:09:23.995Z,11.07
2019-05-02T22:11:55.857Z,12.27
2019-05-02T22:14:27.479Z,11.50
2019-05-02T22:16:59.160Z,13.63
2019-05-02T22:19:32.178Z,13.97
2019-05-02T22:22:03.906Z,14.07
2019-05-02T22:24:35.778Z,15.53
2019-05-02T22:27:08.316Z,15.37
2019-05-02T22:29:39.879Z,16.67
2019-05-02T22:32:12.308Z,17.73
2019-05-02T22:34:45.305Z,19.50
2019-05-02T22:37:18.710Z,17.90
2019-05-02T22:39:54.755Z,19.37
2019-05-02T22:42:26.328Z,20.53
2019-05-02T22:44:57.604Z,23.70
2019-05-02T22:47:29.270Z,20.27
2019-05-02T22:50:00.910Z,20.87
2019-05-02T22:52:32.281Z,21.60
2019-05-02T22:55:04.101Z,20.67
2019-05-02T22:57:35.839Z,21.13
2019-05-02T23:00:09.460Z,21.47
2019-05-02T23:02:42.872Z,21.57
2019-05-02T23:05:14.609Z,17.40
2019-05-02T23:07:46.718Z,12.10
2019-05-02T23:10:18.366Z,11.03
2019-05-02T23:12:51.656Z,13.30
2019-05-02T23:15:23.391Z,10.75
2019-05-02T23:17:54.392Z,10.20
2019-05-02T23:20:25.967Z,8.35
2019-05-02T23:22:57.039Z,5.35
2019-05-02T23:26:05.431Z,9.53
2019-05-02T23:28:38.314Z,6.75
2019-05-02T23:31:11.476Z,7.80
2019-05-02T23:33:59.268Z,10.25
2019-05-02T23:36:32.692Z,13.40
2019-05-02T23:39:05.866Z,9.23
2019-05-02T23:41:38.351Z,8.15
2019-05-02T23:44:12.088Z,7.80
2019-05-02T23:46:43.891Z,8.80
2019-05-02T23:49:15.783Z,10.13
2019-05-02T23:51:47.807Z,7.97
2019-05-02T23:54:19.248Z,7.67
2019-05-02T23:56:50.969Z,10.78
2019-05-02T23:59:22.642Z,13.78
